Aviation Digital Data Service (ADDS)

Output produced by METARs form (1221 UTC 16 July 2019)
found at http://www.aviationweather.gov/metar/data/
 
METAR text: KRDU 161151Z 00000KT 10SM FEW200 BKN250 23/23 A3012 RMK AO2 SLP193 70035 T02330228 10233 20217 51012
Conditions at: KRDU (RALEIGH/DURHAM , NC, US) observed 1151 UTC 16 July 2019
Temperature: 23.3°C (74°F)
Dewpoint: 22.8°C (73°F) [RH = 97%]
Pressure (altimeter): 30.12 inches Hg (1020.1 mb)
[Sea-level pressure: 1019.3 mb]
Winds: calm
Visibility: 10 or more miles (16+ km)
Ceiling: 25000 feet AGL
Clouds: few clouds at 20000 feet AGL
broken clouds at 25000 feet AGL
Weather: no significant weather observed at this time

METAR text: KRDU 161051Z 00000KT 6SM BR FEW220 BKN250 22/22 A3011 RMK AO2 SLP189 T02220217 $
Conditions at: KRDU (RALEIGH/DURHAM , NC, US) observed 1051 UTC 16 July 2019
Temperature: 22.2°C (72°F)
Dewpoint: 21.7°C (71°F) [RH = 97%]
Pressure (altimeter): 30.11 inches Hg (1019.7 mb)
[Sea-level pressure: 1018.9 mb]
Winds: calm
Visibility: 6 miles (10 km)
Ceiling: 25000 feet AGL
Clouds: few clouds at 22000 feet AGL
broken clouds at 25000 feet AGL
Weather: BR  (mist)
SOME DATA ABOVE MAY BE INACCURATE!!!
"$" is an indication the sensor requires maintenance

METAR text: KRDU 160951Z 00000KT 8SM SCT220 BKN250 22/22 A3009 RMK AO2 SLP185 T02220217 $
Conditions at: KRDU (RALEIGH/DURHAM , NC, US) observed 0951 UTC 16 July 2019
Temperature: 22.2°C (72°F)
Dewpoint: 21.7°C (71°F) [RH = 97%]
Pressure (altimeter): 30.09 inches Hg (1019.0 mb)
[Sea-level pressure: 1018.5 mb]
Winds: calm
Visibility: 8 miles (13 km)
Ceiling: 25000 feet AGL
Clouds: scattered clouds at 22000 feet AGL
broken clouds at 25000 feet AGL
Weather:
SOME DATA ABOVE MAY BE INACCURATE!!!
"$" is an indication the sensor requires maintenance

METAR text: KRDU 160851Z 00000KT 10SM FEW200 SCT250 22/22 A3008 RMK AO2 SLP181 T02220222 55002 $
Conditions at: KRDU (RALEIGH/DURHAM , NC, US) observed 0851 UTC 16 July 2019
Temperature: 22.2°C (72°F)
Dewpoint: 22.2°C (72°F) [RH = 100%]
Pressure (altimeter): 30.08 inches Hg (1018.7 mb)
[Sea-level pressure: 1018.1 mb]
Winds: calm
Visibility: 10 or more miles (16+ km)
Ceiling: at least 12,000 feet AGL
Clouds: few clouds at 20000 feet AGL
scattered clouds at 25000 feet AGL
Weather:
SOME DATA ABOVE MAY BE INACCURATE!!!
"$" is an indication the sensor requires maintenance

METAR text: KRDU 160751Z 00000KT 10SM SCT250 22/22 A3007 RMK AO2 SLP176 T02220217 $
Conditions at: KRDU (RALEIGH/DURHAM , NC, US) observed 0751 UTC 16 July 2019
Temperature: 22.2°C (72°F)
Dewpoint: 21.7°C (71°F) [RH = 97%]
Pressure (altimeter): 30.07 inches Hg (1018.4 mb)
[Sea-level pressure: 1017.6 mb]
Winds: calm
Visibility: 10 or more miles (16+ km)
Ceiling: at least 12,000 feet AGL
Clouds: scattered clouds at 25000 feet AGL
Weather:
SOME DATA ABOVE MAY BE INACCURATE!!!
"$" is an indication the sensor requires maintenance

METAR text: KRDU 160651Z 00000KT 10SM BKN250 22/22 A3007 RMK AO2 SLP177 T02220217 $
Conditions at: KRDU (RALEIGH/DURHAM , NC, US) observed 0651 UTC 16 July 2019
Temperature: 22.2°C (72°F)
Dewpoint: 21.7°C (71°F) [RH = 97%]
Pressure (altimeter): 30.07 inches Hg (1018.4 mb)
[Sea-level pressure: 1017.7 mb]
Winds: calm
Visibility: 10 or more miles (16+ km)
Ceiling: 25000 feet AGL
Clouds: broken clouds at 25000 feet AGL
Weather:
SOME DATA ABOVE MAY BE INACCURATE!!!
"$" is an indication the sensor requires maintenance

METAR text: KRDU 160551Z 00000KT 10SM FEW110 BKN250 23/22 A3009 RMK AO2 SLP183 60035 T02280217 10311 20222 50001 $
Conditions at: KRDU (RALEIGH/DURHAM , NC, US) observed 0551 UTC 16 July 2019
Temperature: 22.8°C (73°F)
Dewpoint: 21.7°C (71°F) [RH = 94%]
Pressure (altimeter): 30.09 inches Hg (1019.0 mb)
[Sea-level pressure: 1018.3 mb]
Winds: calm
Visibility: 10 or more miles (16+ km)
Ceiling: 25000 feet AGL
Clouds: few clouds at 11000 feet AGL
broken clouds at 25000 feet AGL
Weather:
SOME DATA ABOVE MAY BE INACCURATE!!!
"$" is an indication the sensor requires maintenance

METAR text: KRDU 160451Z 09003KT 10SM FEW080 BKN250 23/22 A3009 RMK AO2 SLP185 T02280222 403500211 $
Conditions at: KRDU (RALEIGH/DURHAM , NC, US) observed 0451 UTC 16 July 2019
Temperature: 22.8°C (73°F)
Dewpoint: 22.2°C (72°F) [RH = 96%]
Pressure (altimeter): 30.09 inches Hg (1019.0 mb)
[Sea-level pressure: 1018.5 mb]
Winds: from the E (90 degrees) at 3 MPH (3 knots; 1.5 m/s)
Visibility: 10 or more miles (16+ km)
Ceiling: 25000 feet AGL
Clouds: few clouds at 8000 feet AGL
broken clouds at 25000 feet AGL
Weather:
SOME DATA ABOVE MAY BE INACCURATE!!!
"$" is an indication the sensor requires maintenance

METAR text: KRDU 160351Z 00000KT 10SM FEW080 BKN250 23/22 A3009 RMK AO2 SLP183 T02280222 $
Conditions at: KRDU (RALEIGH/DURHAM , NC, US) observed 0351 UTC 16 July 2019
Temperature: 22.8°C (73°F)
Dewpoint: 22.2°C (72°F) [RH = 96%]
Pressure (altimeter): 30.09 inches Hg (1019.0 mb)
[Sea-level pressure: 1018.3 mb]
Winds: calm
Visibility: 10 or more miles (16+ km)
Ceiling: 25000 feet AGL
Clouds: few clouds at 8000 feet AGL
broken clouds at 25000 feet AGL
Weather:
SOME DATA ABOVE MAY BE INACCURATE!!!
"$" is an indication the sensor requires maintenance

METAR text: KRDU 160251Z 00000KT 10SM FEW060 OVC250 23/22 A3008 RMK AO2 RAE0156 TSE04 SLP182 P0000 60035 T02280217 50008 $
Conditions at: KRDU (RALEIGH/DURHAM , NC, US) observed 0251 UTC 16 July 2019
Temperature: 22.8°C (73°F)
Dewpoint: 21.7°C (71°F) [RH = 94%]
Pressure (altimeter): 30.08 inches Hg (1018.7 mb)
[Sea-level pressure: 1018.2 mb]
Winds: calm
Visibility: 10 or more miles (16+ km)
Ceiling: 25000 feet AGL
Clouds: few clouds at 6000 feet AGL
overcast cloud deck at 25000 feet AGL
Weather:
SOME DATA ABOVE MAY BE INACCURATE!!!
"$" is an indication the sensor requires maintenance

METAR text: KRDU 160204Z 11003KT 10SM FEW060 BKN120 OVC250 23/22 A3008 RMK AO2 RAE0156 TSE04 P0000 T02280217 $
Conditions at: KRDU (RALEIGH/DURHAM , NC, US) observed 0204 UTC 16 July 2019
Temperature: 22.8°C (73°F)
Dewpoint: 21.7°C (71°F) [RH = 94%]
Pressure (altimeter): 30.08 inches Hg (1018.7 mb)
Winds: from the ESE (110 degrees) at 3 MPH (3 knots; 1.5 m/s)
Visibility: 10 or more miles (16+ km)
Ceiling: 12000 feet AGL
Clouds: few clouds at 6000 feet AGL
broken clouds at 12000 feet AGL
overcast cloud deck at 25000 feet AGL
Weather:
SOME DATA ABOVE MAY BE INACCURATE!!!
"$" is an indication the sensor requires maintenance

METAR text: KRDU 160151Z 12007KT 8SM -TSRA SCT060CB BKN120 OVC250 24/21 A3009 RMK AO2 SLP182 OCNL LTGICCG SE TS SE MOV SE TCU OHD P0013 T02440206 $
Conditions at: KRDU (RALEIGH/DURHAM , NC, US) observed 0151 UTC 16 July 2019
Temperature: 24.4°C (76°F)
Dewpoint: 20.6°C (69°F) [RH = 79%]
Pressure (altimeter): 30.09 inches Hg (1019.0 mb)
[Sea-level pressure: 1018.2 mb]
Winds: from the ESE (120 degrees) at 8 MPH (7 knots; 3.6 m/s)
Visibility: 8 miles (13 km)
Ceiling: 12000 feet AGL
Clouds: scattered clouds at 6000 feet AGL
broken clouds at 12000 feet AGL
overcast cloud deck at 25000 feet AGL
Weather: -TSRA  (light rain associated with thunderstorm(s))
SOME DATA ABOVE MAY BE INACCURATE!!!
"$" is an indication the sensor requires maintenance

METAR text: KRDU 160051Z 23004G21KT 7SM TSRA FEW028 SCT060CB BKN250 27/19 A3008 RMK AO2 RAB26E38B42 TSB38 SLP181 OCNL LTGIC OHD TS OHD MOV E P0022 T02720194 $
Conditions at: KRDU (RALEIGH/DURHAM , NC, US) observed 0051 UTC 16 July 2019
Temperature: 27.2°C (81°F)
Dewpoint: 19.4°C (67°F) [RH = 62%]
Pressure (altimeter): 30.08 inches Hg (1018.7 mb)
[Sea-level pressure: 1018.1 mb]
Winds: from the SW (230 degrees) at 5 MPH (4 knots; 2.1 m/s)
gusting to 24 MPH (21 knots; 10.8 m/s)
Visibility: 7 miles (11 km)
Ceiling: 25000 feet AGL
Clouds: few clouds at 2800 feet AGL
scattered clouds at 6000 feet AGL
broken clouds at 25000 feet AGL
Weather: TSRA  (rain associated with thunderstorm(s))
SOME DATA ABOVE MAY BE INACCURATE!!!
"$" is an indication the sensor requires maintenance

METAR text: KRDU 160038Z COR VBR05G21KT 9SM TS SCT065CB BKN250 29/22 A3008 RMK AO2 RAB26E38 TSB38 FRQ LTGICCG NW TS NW MOV E P0000 T02940217
Conditions at: KRDU (RALEIGH/DURHAM , NC, US) observed 0038 UTC 16 July 2019
Temperature: 29.4°C (85°F)
Dewpoint: 21.7°C (71°F) [RH = 63%]
Pressure (altimeter): 30.08 inches Hg (1018.7 mb)
Winds: missing
Visibility: 9 miles (14 km)
Ceiling: 25000 feet AGL
Clouds: scattered clouds at 6500 feet AGL
broken clouds at 25000 feet AGL
Weather: TS BR  (thunderstorm, mist)

METAR text: KRDU 152351Z 18004KT 10SM FEW065TCU BKN250 31/21 A3006 RMK AO2 SLP173 TCU NW AND DSNT NE-SE AND W T03110211 10350 20311 53004
Conditions at: KRDU (RALEIGH/DURHAM , NC, US) observed 2351 UTC 15 July 2019
Temperature: 31.1°C (88°F)
Dewpoint: 21.1°C (70°F) [RH = 55%]
Pressure (altimeter): 30.06 inches Hg (1018.0 mb)
[Sea-level pressure: 1017.3 mb]
Winds: from the S (180 degrees) at 5 MPH (4 knots; 2.1 m/s)
Visibility: 10 or more miles (16+ km)
Ceiling: 25000 feet AGL
Clouds: few clouds at 6500 feet AGL
broken clouds at 25000 feet AGL
Weather: no significant weather observed at this time

METAR text: KRDU 152251Z 17005KT 10SM SCT065TCU BKN250 32/21 A3005 RMK AO2 SLP170 TCU E AND NW AND DSNT SE AND SW-W T03220206
Conditions at: KRDU (RALEIGH/DURHAM , NC, US) observed 2251 UTC 15 July 2019
Temperature: 32.2°C (90°F)
Dewpoint: 20.6°C (69°F) [RH = 50%]
Pressure (altimeter): 30.05 inches Hg (1017.7 mb)
[Sea-level pressure: 1017.0 mb]
Winds: from the S (170 degrees) at 6 MPH (5 knots; 2.6 m/s)
Visibility: 10 or more miles (16+ km)
Ceiling: 25000 feet AGL
Clouds: scattered clouds at 6500 feet AGL
broken clouds at 25000 feet AGL
Weather: no significant weather observed at this time

METAR text: KRDU 152151Z VRB06KT 10SM SCT065TCU BKN250 34/20 A3004 RMK AO2 TSE04 SLP166 TCU OHD-E-SE AND SW-W T03390200
Conditions at: KRDU (RALEIGH/DURHAM , NC, US) observed 2151 UTC 15 July 2019
Temperature: 33.9°C (93°F)
Dewpoint: 20.0°C (68°F) [RH = 44%]
Pressure (altimeter): 30.04 inches Hg (1017.4 mb)
[Sea-level pressure: 1016.6 mb]
Winds: variable direction winds at 7 MPH (6 knots; 3.1 m/s)
Visibility: 10 or more miles (16+ km)
Ceiling: 25000 feet AGL
Clouds: scattered clouds at 6500 feet AGL
broken clouds at 25000 feet AGL
Weather: no significant weather observed at this time

METAR text: KRDU 152051Z 11005KT 10SM SCT060TCU BKN250 33/19 A3005 RMK AO2 SLP169 TCU OHD-E-NW AND DSNT N-NE T03330194 56016
Conditions at: KRDU (RALEIGH/DURHAM , NC, US) observed 2051 UTC 15 July 2019
Temperature: 33.3°C (92°F)
Dewpoint: 19.4°C (67°F) [RH = 44%]
Pressure (altimeter): 30.05 inches Hg (1017.7 mb)
[Sea-level pressure: 1016.9 mb]
Winds: from the ESE (110 degrees) at 6 MPH (5 knots; 2.6 m/s)
Visibility: 10 or more miles (16+ km)
Ceiling: 25000 feet AGL
Clouds: scattered clouds at 6000 feet AGL
broken clouds at 25000 feet AGL
Weather: no significant weather observed at this time

METAR text: KRDU 151951Z 27003KT 10SM BKN060TCU BKN250 34/19 A3006 RMK AO2 SLP174 TCU OHD-E-NW AND DSNT N T03440194
Conditions at: KRDU (RALEIGH/DURHAM , NC, US) observed 1951 UTC 15 July 2019
Temperature: 34.4°C (94°F)
Dewpoint: 19.4°C (67°F) [RH = 41%]
Pressure (altimeter): 30.06 inches Hg (1018.0 mb)
[Sea-level pressure: 1017.4 mb]
Winds: from the W (270 degrees) at 3 MPH (3 knots; 1.5 m/s)
Visibility: 10 or more miles (16+ km)
Ceiling: 6000 feet AGL
Clouds: broken clouds at 6000 feet AGL
broken clouds at 25000 feet AGL
Weather: no significant weather observed at this time

METAR text: KRDU 151851Z 00000KT 10SM SCT060TCU SCT250 34/19 A3008 RMK AO2 SLP179 TCU SE-SW-NW T03440189
Conditions at: KRDU (RALEIGH/DURHAM , NC, US) observed 1851 UTC 15 July 2019
Temperature: 34.4°C (94°F)
Dewpoint: 18.9°C (66°F) [RH = 40%]
Pressure (altimeter): 30.08 inches Hg (1018.7 mb)
[Sea-level pressure: 1017.9 mb]
Winds: calm
Visibility: 10 or more miles (16+ km)
Ceiling: at least 12,000 feet AGL
Clouds: scattered clouds at 6000 feet AGL
scattered clouds at 25000 feet AGL
Weather: no significant weather observed at this time

METAR text: KRDU 151751Z VRB05KT 10SM SCT055 SCT250 33/19 A3010 RMK AO2 SLP186 T03330194 10344 20256 58007
Conditions at: KRDU (RALEIGH/DURHAM , NC, US) observed 1751 UTC 15 July 2019
Temperature: 33.3°C (92°F)
Dewpoint: 19.4°C (67°F) [RH = 44%]
Pressure (altimeter): 30.10 inches Hg (1019.4 mb)
[Sea-level pressure: 1018.6 mb]
Winds: variable direction winds at 6 MPH (5 knots; 2.6 m/s)
Visibility: 10 or more miles (16+ km)
Ceiling: at least 12,000 feet AGL
Clouds: scattered clouds at 5500 feet AGL
scattered clouds at 25000 feet AGL
Weather: no significant weather observed at this time

METAR text: KRDU 151651Z 05003KT 10SM FEW055 SCT250 33/20 A3010 RMK AO2 SLP188 T03280200
Conditions at: KRDU (RALEIGH/DURHAM , NC, US) observed 1651 UTC 15 July 2019
Temperature: 32.8°C (91°F)
Dewpoint: 20.0°C (68°F) [RH = 47%]
Pressure (altimeter): 30.10 inches Hg (1019.4 mb)
[Sea-level pressure: 1018.8 mb]
Winds: from the NE (50 degrees) at 3 MPH (3 knots; 1.5 m/s)
Visibility: 10 or more miles (16+ km)
Ceiling: at least 12,000 feet AGL
Clouds: few clouds at 5500 feet AGL
scattered clouds at 25000 feet AGL
Weather: no significant weather observed at this time

METAR text: KRDU 151551Z 07006KT 10SM FEW250 32/20 A3012 RMK AO2 SLP193 T03220200
Conditions at: KRDU (RALEIGH/DURHAM , NC, US) observed 1551 UTC 15 July 2019
Temperature: 32.2°C (90°F)
Dewpoint: 20.0°C (68°F) [RH = 49%]
Pressure (altimeter): 30.12 inches Hg (1020.1 mb)
[Sea-level pressure: 1019.3 mb]
Winds: from the ENE (70 degrees) at 7 MPH (6 knots; 3.1 m/s)
Visibility: 10 or more miles (16+ km)
Ceiling: at least 12,000 feet AGL
Clouds: few clouds at 25000 feet AGL
Weather: no significant weather observed at this time

METAR text: KRDU 151451Z 07008KT 10SM FEW250 31/19 A3012 RMK AO2 SLP193 T03060194 50003
Conditions at: KRDU (RALEIGH/DURHAM , NC, US) observed 1451 UTC 15 July 2019
Temperature: 30.6°C (87°F)
Dewpoint: 19.4°C (67°F) [RH = 51%]
Pressure (altimeter): 30.12 inches Hg (1020.1 mb)
[Sea-level pressure: 1019.3 mb]
Winds: from the ENE (70 degrees) at 9 MPH (8 knots; 4.1 m/s)
Visibility: 10 or more miles (16+ km)
Ceiling: at least 12,000 feet AGL
Clouds: few clouds at 25000 feet AGL
Weather: no significant weather observed at this time

METAR text: KRDU 151351Z 08011KT 10SM FEW250 29/21 A3012 RMK AO2 SLP193 T02890206
Conditions at: KRDU (RALEIGH/DURHAM , NC, US) observed 1351 UTC 15 July 2019
Temperature: 28.9°C (84°F)
Dewpoint: 20.6°C (69°F) [RH = 61%]
Pressure (altimeter): 30.12 inches Hg (1020.1 mb)
[Sea-level pressure: 1019.3 mb]
Winds: from the E (80 degrees) at 13 MPH (11 knots; 5.7 m/s)
Visibility: 10 or more miles (16+ km)
Ceiling: at least 12,000 feet AGL
Clouds: few clouds at 25000 feet AGL
Weather: no significant weather observed at this time

METAR text: KRDU 151251Z 04009KT 10SM FEW070 SCT250 28/20 A3012 RMK AO2 SLP194 T02780200
Conditions at: KRDU (RALEIGH/DURHAM , NC, US) observed 1251 UTC 15 July 2019
Temperature: 27.8°C (82°F)
Dewpoint: 20.0°C (68°F) [RH = 63%]
Pressure (altimeter): 30.12 inches Hg (1020.1 mb)
[Sea-level pressure: 1019.4 mb]
Winds: from the NE (40 degrees) at 10 MPH (9 knots; 4.6 m/s)
Visibility: 10 or more miles (16+ km)
Ceiling: at least 12,000 feet AGL
Clouds: few clouds at 7000 feet AGL
scattered clouds at 25000 feet AGL
Weather: no significant weather observed at this time

METAR text: KRDU 151151Z 03007KT 10SM FEW070 SCT250 26/21 A3011 RMK AO2 SLP190 T02560206 10256 20211 51016
Conditions at: KRDU (RALEIGH/DURHAM , NC, US) observed 1151 UTC 15 July 2019
Temperature: 25.6°C (78°F)
Dewpoint: 20.6°C (69°F) [RH = 74%]
Pressure (altimeter): 30.11 inches Hg (1019.7 mb)
[Sea-level pressure: 1019.0 mb]
Winds: from the NNE (30 degrees) at 8 MPH (7 knots; 3.6 m/s)
Visibility: 10 or more miles (16+ km)
Ceiling: at least 12,000 feet AGL
Clouds: few clouds at 7000 feet AGL
scattered clouds at 25000 feet AGL
Weather: no significant weather observed at this time

METAR text: KRDU 151051Z 00000KT 10SM FEW070 SCT250 22/20 A3010 RMK AO2 SLP186 T02220200
Conditions at: KRDU (RALEIGH/DURHAM , NC, US) observed 1051 UTC 15 July 2019
Temperature: 22.2°C (72°F)
Dewpoint: 20.0°C (68°F) [RH = 87%]
Pressure (altimeter): 30.10 inches Hg (1019.4 mb)
[Sea-level pressure: 1018.6 mb]
Winds: calm
Visibility: 10 or more miles (16+ km)
Ceiling: at least 12,000 feet AGL
Clouds: few clouds at 7000 feet AGL
scattered clouds at 25000 feet AGL
Weather: no significant weather observed at this time

METAR text: KRDU 150951Z 36003KT 10SM FEW070 SCT250 21/19 A3008 RMK AO2 SLP180 T02110194
Conditions at: KRDU (RALEIGH/DURHAM , NC, US) observed 0951 UTC 15 July 2019
Temperature: 21.1°C (70°F)
Dewpoint: 19.4°C (67°F) [RH = 90%]
Pressure (altimeter): 30.08 inches Hg (1018.7 mb)
[Sea-level pressure: 1018.0 mb]
Winds: from the N (360 degrees) at 3 MPH (3 knots; 1.5 m/s)
Visibility: 10 or more miles (16+ km)
Ceiling: at least 12,000 feet AGL
Clouds: few clouds at 7000 feet AGL
scattered clouds at 25000 feet AGL
Weather: no significant weather observed at this time

METAR text: KRDU 150851Z 00000KT 10SM FEW250 22/19 A3006 RMK AO2 SLP174 T02170194 53003
Conditions at: KRDU (RALEIGH/DURHAM , NC, US) observed 0851 UTC 15 July 2019
Temperature: 21.7°C (71°F)
Dewpoint: 19.4°C (67°F) [RH = 87%]
Pressure (altimeter): 30.06 inches Hg (1018.0 mb)
[Sea-level pressure: 1017.4 mb]
Winds: calm
Visibility: 10 or more miles (16+ km)
Ceiling: at least 12,000 feet AGL
Clouds: few clouds at 25000 feet AGL
Weather: no significant weather observed at this time

METAR text: KRDU 150751Z 00000KT 10SM FEW250 22/19 A3005 RMK AO2 SLP169 T02170194
Conditions at: KRDU (RALEIGH/DURHAM , NC, US) observed 0751 UTC 15 July 2019
Temperature: 21.7°C (71°F)
Dewpoint: 19.4°C (67°F) [RH = 87%]
Pressure (altimeter): 30.05 inches Hg (1017.7 mb)
[Sea-level pressure: 1016.9 mb]
Winds: calm
Visibility: 10 or more miles (16+ km)
Ceiling: at least 12,000 feet AGL
Clouds: few clouds at 25000 feet AGL
Weather: no significant weather observed at this time

METAR text: KRDU 150651Z 00000KT 10SM FEW250 22/19 A3005 RMK AO2 SLP170 T02220194
Conditions at: KRDU (RALEIGH/DURHAM , NC, US) observed 0651 UTC 15 July 2019
Temperature: 22.2°C (72°F)
Dewpoint: 19.4°C (67°F) [RH = 84%]
Pressure (altimeter): 30.05 inches Hg (1017.7 mb)
[Sea-level pressure: 1017.0 mb]
Winds: calm
Visibility: 10 or more miles (16+ km)
Ceiling: at least 12,000 feet AGL
Clouds: few clouds at 25000 feet AGL
Weather: no significant weather observed at this time

METAR text: KRDU 150551Z 00000KT 10SM FEW250 22/19 A3005 RMK AO2 SLP170 T02170189 10328 20217 58003
Conditions at: KRDU (RALEIGH/DURHAM , NC, US) observed 0551 UTC 15 July 2019
Temperature: 21.7°C (71°F)
Dewpoint: 18.9°C (66°F) [RH = 84%]
Pressure (altimeter): 30.05 inches Hg (1017.7 mb)
[Sea-level pressure: 1017.0 mb]
Winds: calm
Visibility: 10 or more miles (16+ km)
Ceiling: at least 12,000 feet AGL
Clouds: few clouds at 25000 feet AGL
Weather: no significant weather observed at this time

METAR text: KRDU 150451Z 00000KT 10SM SCT250 23/19 A3006 RMK AO2 SLP174 T02330194 403560222
Conditions at: KRDU (RALEIGH/DURHAM , NC, US) observed 0451 UTC 15 July 2019
Temperature: 23.3°C (74°F)
Dewpoint: 19.4°C (67°F) [RH = 79%]
Pressure (altimeter): 30.06 inches Hg (1018.0 mb)
[Sea-level pressure: 1017.4 mb]
Winds: calm
Visibility: 10 or more miles (16+ km)
Ceiling: at least 12,000 feet AGL
Clouds: scattered clouds at 25000 feet AGL
Weather: no significant weather observed at this time

METAR text: KRDU 150351Z 00000KT 10SM SCT250 24/19 A3007 RMK AO2 SLP176 T02440189
Conditions at: KRDU (RALEIGH/DURHAM , NC, US) observed 0351 UTC 15 July 2019
Temperature: 24.4°C (76°F)
Dewpoint: 18.9°C (66°F) [RH = 71%]
Pressure (altimeter): 30.07 inches Hg (1018.4 mb)
[Sea-level pressure: 1017.6 mb]
Winds: calm
Visibility: 10 or more miles (16+ km)
Ceiling: at least 12,000 feet AGL
Clouds: scattered clouds at 25000 feet AGL
Weather: no significant weather observed at this time

METAR text: KRDU 150251Z 00000KT 10SM SCT250 26/19 A3006 RMK AO2 SLP174 T02560189 53011
Conditions at: KRDU (RALEIGH/DURHAM , NC, US) observed 0251 UTC 15 July 2019
Temperature: 25.6°C (78°F)
Dewpoint: 18.9°C (66°F) [RH = 67%]
Pressure (altimeter): 30.06 inches Hg (1018.0 mb)
[Sea-level pressure: 1017.4 mb]
Winds: calm
Visibility: 10 or more miles (16+ km)
Ceiling: at least 12,000 feet AGL
Clouds: scattered clouds at 25000 feet AGL
Weather: no significant weather observed at this time

METAR text: KRDU 150151Z 00000KT 10SM SCT250 26/19 A3005 RMK AO2 SLP170 T02610189
Conditions at: KRDU (RALEIGH/DURHAM , NC, US) observed 0151 UTC 15 July 2019
Temperature: 26.1°C (79°F)
Dewpoint: 18.9°C (66°F) [RH = 65%]
Pressure (altimeter): 30.05 inches Hg (1017.7 mb)
[Sea-level pressure: 1017.0 mb]
Winds: calm
Visibility: 10 or more miles (16+ km)
Ceiling: at least 12,000 feet AGL
Clouds: scattered clouds at 25000 feet AGL
Weather: no significant weather observed at this time

METAR text: KRDU 150051Z 00000KT 10SM SCT250 28/18 A3003 RMK AO2 SLP164 T02780178
Conditions at: KRDU (RALEIGH/DURHAM , NC, US) observed 0051 UTC 15 July 2019
Temperature: 27.8°C (82°F)
Dewpoint: 17.8°C (64°F) [RH = 55%]
Pressure (altimeter): 30.03 inches Hg (1017.0 mb)
[Sea-level pressure: 1016.4 mb]
Winds: calm
Visibility: 10 or more miles (16+ km)
Ceiling: at least 12,000 feet AGL
Clouds: scattered clouds at 25000 feet AGL
Weather: no significant weather observed at this time

Forecast for: KRDU (RALEIGH/DURHAM , NC, US)
Text: KRDU 161120Z 1612/1712 22005KT P6SM SCT180 BKN250
Forecast period: 1200 UTC 16 July 2019 to 1200 UTC 17 July 2019
Forecast type: FROM: standard forecast or significant change
Winds: from the SW (220 degrees) at 6 MPH (5 knots; 2.6 m/s)
Visibility: 6 or more miles 10+ km)
Ceiling: 25000 feet AGL
Clouds: scattered clouds at 18000 feet AGL
broken clouds at 25000 feet AGL
Weather: no significant weather forecast for this period